createdAt,value
2018-03-08T00:01:38.472Z,170.07
2018-03-08T00:04:09.261Z,171.40
2018-03-08T00:06:39.633Z,162.40
2018-03-08T00:09:10.419Z,165.30
2018-03-08T00:11:40.742Z,151.80
2018-03-08T00:14:11.103Z,169.00
2018-03-08T00:16:41.972Z,168.40
2018-03-08T00:19:12.468Z,159.57
2018-03-08T00:21:42.775Z,163.87
2018-03-08T00:24:13.426Z,163.20
2018-03-08T00:26:43.760Z,154.90
2018-03-08T00:29:14.111Z,165.13
2018-03-08T00:31:44.698Z,161.47
2018-03-08T00:34:15.279Z,171.83
2018-03-08T00:36:45.687Z,173.13
2018-03-08T00:39:16.327Z,185.93
2018-03-08T00:41:46.678Z,182.00
2018-03-08T00:44:17.016Z,180.53
2018-03-08T00:46:48.209Z,180.57
2018-03-08T00:49:18.671Z,166.53
2018-03-08T00:51:50.079Z,183.43
2018-03-08T00:54:20.686Z,172.93
2018-03-08T00:56:51.958Z,179.53
2018-03-08T00:59:23.716Z,177.50
2018-03-08T01:01:54.857Z,177.73
2018-03-08T01:04:25.795Z,172.37
2018-03-08T01:06:57.033Z,180.60
2018-03-08T01:09:27.342Z,187.00
2018-03-08T01:11:58.163Z,180.97
2018-03-08T01:14:28.564Z,173.73
2018-03-08T01:17:00.332Z,192.03
2018-03-08T01:19:31.696Z,175.80
2018-03-08T01:22:02.012Z,169.43
2018-03-08T01:24:32.694Z,160.43
2018-03-08T01:27:03.167Z,166.17
2018-03-08T01:29:33.694Z,166.57
2018-03-08T01:32:04.367Z,171.30
2018-03-08T01:34:34.759Z,162.70
2018-03-08T01:37:05.107Z,157.83
2018-03-08T01:39:35.758Z,165.50
2018-03-08T01:42:06.091Z,161.73
2018-03-08T01:44:36.450Z,153.77
2018-03-08T01:47:07.070Z,156.73
2018-03-08T01:49:38.430Z,152.43
2018-03-08T01:52:13.198Z,153.17
2018-03-08T01:54:43.783Z,167.03
2018-03-08T01:57:14.430Z,154.10
2018-03-08T01:59:44.804Z,181.60
2018-03-08T02:02:15.127Z,152.43
2018-03-08T02:04:45.763Z,168.77
2018-03-08T02:07:16.878Z,162.27
2018-03-08T02:09:48.274Z,167.97
2018-03-08T02:12:19.394Z,160.27
2018-03-08T02:14:49.714Z,170.60
2018-03-08T02:17:20.084Z,168.03
2018-03-08T02:23:23.929Z,152.73
2018-03-08T02:25:55.268Z,166.40
2018-03-08T02:28:26.202Z,167.57
2018-03-08T02:30:57.456Z,173.70
2018-03-08T02:33:28.594Z,160.40
2018-03-08T02:35:59.200Z,166.33
2018-03-08T02:38:29.958Z,153.07
2018-03-08T02:41:01.150Z,159.73
2018-03-08T02:43:31.630Z,166.43
2018-03-08T02:46:02.244Z,171.37
2018-03-08T02:48:32.567Z,170.20
2018-03-08T02:51:03.063Z,158.00
2018-03-08T02:53:34.434Z,175.57
2018-03-08T02:56:05.539Z,174.33
2018-03-08T02:58:35.936Z,163.80
2018-03-08T03:01:06.779Z,170.37
2018-03-08T03:03:38.154Z,183.30
2018-03-08T03:06:09.254Z,180.07
2018-03-08T03:08:40.233Z,182.53
2018-03-08T03:11:10.959Z,174.87
2018-03-08T03:13:45.583Z,176.17
2018-03-08T03:16:22.186Z,163.93
2018-03-08T03:18:52.922Z,176.60
2018-03-08T03:21:23.607Z,178.63
2018-03-08T03:24:00.214Z,176.27
2018-03-08T03:26:31.563Z,184.57
2018-03-08T03:29:03.169Z,186.50
2018-03-08T03:31:33.659Z,182.07
2018-03-08T03:34:04.043Z,182.17
2018-03-08T03:36:34.445Z,199.73
2018-03-08T03:39:05.310Z,186.80
2018-03-08T03:41:36.442Z,198.57
2018-03-08T03:44:07.122Z,189.83
2018-03-08T03:46:37.774Z,184.73
2018-03-08T03:49:08.106Z,193.10
2018-03-08T03:51:38.832Z,212.43
2018-03-08T03:54:09.383Z,252.43
2018-03-08T03:56:39.997Z,237.40
2018-03-08T03:59:10.427Z,244.57
2018-03-08T04:01:40.799Z,223.57
2018-03-08T04:04:11.407Z,231.70
2018-03-08T04:06:41.973Z,236.00
2018-03-08T04:09:12.336Z,249.57
2018-03-08T04:11:43.039Z,259.73
2018-03-08T04:14:14.583Z,258.63
2018-03-08T04:16:44.919Z,255.57
2018-03-08T04:19:15.263Z,252.47
2018-03-08T04:21:45.890Z,306.00
2018-03-08T04:24:16.271Z,280.80
2018-03-08T04:26:46.867Z,285.90
2018-03-08T04:29:17.474Z,296.70
2018-03-08T04:31:47.884Z,309.07
2018-03-08T04:34:21.847Z,341.33
2018-03-08T04:36:53.923Z,334.33
2018-03-08T04:39:25.027Z,349.83
2018-03-08T04:41:55.376Z,342.33
2018-03-08T04:44:26.795Z,341.30
2018-03-08T04:46:57.391Z,369.93
2018-03-08T04:49:27.761Z,362.53
2018-03-08T04:51:58.888Z,346.93
2018-03-08T04:54:29.483Z,343.07
2018-03-08T04:57:00.129Z,330.50
2018-03-08T04:59:30.503Z,342.40
2018-03-08T05:02:01.895Z,369.93
2018-03-08T05:04:33.056Z,394.20
2018-03-08T05:07:03.418Z,361.47
2018-03-08T05:09:34.535Z,374.47
2018-03-08T05:12:05.118Z,363.60
2018-03-08T05:14:35.761Z,365.93
2018-03-08T05:17:06.278Z,362.40
2018-03-08T05:19:36.685Z,360.37
2018-03-08T05:22:07.042Z,402.83
2018-03-08T05:24:37.417Z,368.20
2018-03-08T05:27:08.247Z,356.10
2018-03-08T05:29:38.820Z,432.83
2018-03-08T05:32:09.207Z,399.57
2018-03-08T05:34:40.655Z,382.33
2018-03-08T05:37:11.479Z,459.47
2018-03-08T05:39:43.817Z,488.90
2018-03-08T05:42:14.824Z,465.67
2018-03-08T05:44:45.494Z,476.10
2018-03-08T05:47:16.079Z,450.27
2018-03-08T05:49:47.831Z,424.97
2018-03-08T05:52:19.450Z,521.77
2018-03-08T05:54:50.131Z,436.63
2018-03-08T05:57:20.962Z,406.97
2018-03-08T05:59:51.432Z,423.83
2018-03-08T06:02:22.087Z,415.03
2018-03-08T06:04:53.222Z,415.87
2018-03-08T06:07:25.950Z,384.47
2018-03-08T06:09:56.755Z,374.83
2018-03-08T06:12:29.700Z,386.10
2018-03-08T06:15:01.920Z,358.23
2018-03-08T06:17:32.586Z,369.93
2018-03-08T06:20:03.010Z,354.10
2018-03-08T06:22:33.643Z,343.70
2018-03-08T06:25:04.077Z,334.43
2018-03-08T06:27:34.752Z,346.40
2018-03-08T06:30:12.524Z,342.80
2018-03-08T06:32:45.131Z,305.90
2018-03-08T06:35:16.984Z,296.97
2018-03-08T06:37:48.407Z,300.67
2018-03-08T06:40:20.669Z,311.13
2018-03-08T06:42:52.155Z,297.63
2018-03-08T06:45:24.578Z,306.53
2018-03-08T06:47:55.190Z,317.33
2018-03-08T06:50:27.042Z,331.67
2018-03-08T06:52:57.367Z,273.37
2018-03-08T06:55:28.842Z,320.87
2018-03-08T06:58:00.712Z,298.47
2018-03-08T07:00:31.539Z,305.17
2018-03-08T07:03:03.334Z,291.23
2018-03-08T07:05:35.018Z,276.47
2018-03-08T07:08:07.365Z,304.20
2018-03-08T07:10:38.154Z,325.03
2018-03-08T07:13:09.372Z,281.60
2018-03-08T07:15:39.990Z,310.63
2018-03-08T07:18:10.628Z,305.20
2018-03-08T07:20:41.807Z,283.00
2018-03-08T07:23:12.593Z,288.43
2018-03-08T07:25:43.115Z,282.97
2018-03-08T07:28:13.867Z,286.20
2018-03-08T07:30:44.841Z,265.47
2018-03-08T07:33:16.350Z,264.70
2018-03-08T07:35:47.330Z,236.13
2018-03-08T07:38:17.743Z,227.83
2018-03-08T07:40:48.341Z,217.47
2018-03-08T07:43:18.810Z,188.83
2018-03-08T07:45:49.220Z,193.80
2018-03-08T07:48:19.877Z,159.07
2018-03-08T07:50:50.302Z,167.33
2018-03-08T07:53:21.535Z,133.00
2018-03-08T07:55:52.138Z,135.27
2018-03-08T07:58:22.466Z,134.70
2018-03-08T08:01:04.130Z,108.03
2018-03-08T08:03:39.140Z,95.10
2018-03-08T08:07:19.366Z,101.40
2018-03-08T08:09:50.986Z,97.27
2018-03-08T08:12:21.743Z,94.30
2018-03-08T08:16:02.350Z,102.20
2018-03-08T08:18:35.727Z,93.93
2018-03-08T08:21:06.304Z,88.93
2018-03-08T08:23:45.006Z,92.13
2018-03-08T08:26:16.994Z,91.37
2018-03-08T08:28:49.055Z,86.83
2018-03-08T08:31:20.699Z,85.93
2018-03-08T08:33:53.026Z,89.27
2018-03-08T08:36:24.086Z,78.27
2018-03-08T08:38:54.403Z,80.10
2018-03-08T08:41:25.007Z,74.67
2018-03-08T08:43:57.767Z,78.47
2018-03-08T08:46:30.906Z,78.63
2018-03-08T08:49:01.911Z,67.33
2018-03-08T08:51:32.239Z,70.17
2018-03-08T08:54:03.266Z,68.63
2018-03-08T08:56:33.627Z,58.80
2018-03-08T08:59:03.991Z,57.03
2018-03-08T09:01:35.112Z,58.73
2018-03-08T09:04:06.236Z,59.80
2018-03-08T09:06:36.848Z,62.23
2018-03-08T09:09:07.177Z,65.97
2018-03-08T09:11:37.499Z,64.70
2018-03-08T09:14:12.550Z,64.67
2018-03-08T09:16:43.688Z,59.13
2018-03-08T09:19:14.075Z,57.90
2018-03-08T09:21:44.694Z,63.50
2018-03-08T09:24:15.056Z,62.20
2018-03-08T09:26:45.527Z,64.03
2018-03-08T09:29:15.867Z,71.53
2018-03-08T09:31:46.519Z,71.30
2018-03-08T09:34:17.063Z,71.60
2018-03-08T09:36:47.410Z,75.93
2018-03-08T09:39:18.812Z,79.97
2018-03-08T09:41:49.511Z,74.60
2018-03-08T09:44:20.418Z,82.87
2018-03-08T09:46:50.790Z,80.57
2018-03-08T09:49:21.424Z,83.83
2018-03-08T09:51:51.829Z,87.67
2018-03-08T09:54:22.483Z,83.93
2018-03-08T09:56:52.967Z,85.47
2018-03-08T09:59:23.400Z,94.70
2018-03-08T10:01:55.056Z,100.87
2018-03-08T10:04:26.151Z,89.97
2018-03-08T10:06:56.470Z,96.50
2018-03-08T10:09:27.088Z,81.13
2018-03-08T10:11:57.437Z,81.10
2018-03-08T10:14:27.788Z,85.57
2018-03-08T10:16:59.170Z,87.83
2018-03-08T10:19:29.825Z,88.13
2018-03-08T10:22:00.175Z,85.53
2018-03-08T10:24:30.807Z,86.33
2018-03-08T10:27:01.141Z,89.93
2018-03-08T10:29:32.263Z,82.90
2018-03-08T10:32:03.339Z,92.43
2018-03-08T10:34:34.464Z,84.33
2018-03-08T10:37:05.072Z,86.90
2018-03-08T10:39:35.443Z,81.30
2018-03-08T10:42:06.589Z,81.83
2018-03-08T10:44:37.198Z,80.40
2018-03-08T10:47:08.367Z,75.13
2018-03-08T10:49:39.076Z,77.70
2018-03-08T10:52:09.792Z,70.13
2018-03-08T10:54:40.169Z,62.77
2018-03-08T10:57:10.517Z,64.23
2018-03-08T10:59:41.964Z,61.13
2018-03-08T11:02:16.761Z,58.77
2018-03-08T11:04:51.212Z,58.47
2018-03-08T11:07:22.695Z,49.27
2018-03-08T11:09:53.285Z,47.77
2018-03-08T11:12:23.611Z,42.60
2018-03-08T11:14:53.944Z,44.10
2018-03-08T11:17:24.577Z,43.37
2018-03-08T11:19:55.169Z,38.50
2018-03-08T11:22:25.495Z,42.90
2018-03-08T11:24:56.081Z,38.97
2018-03-08T11:27:26.450Z,38.27
2018-03-08T11:29:56.825Z,44.13
2018-03-08T11:32:28.248Z,38.03
2018-03-08T11:34:58.653Z,40.37
2018-03-08T11:37:29.015Z,40.57
2018-03-08T11:39:59.698Z,43.20
2018-03-08T11:42:30.594Z,42.97
2018-03-08T11:45:00.513Z,39.10
2018-03-08T11:47:33.171Z,37.77
2018-03-08T11:50:03.952Z,38.13
2018-03-08T11:52:34.942Z,39.77
2018-03-08T11:55:05.557Z,35.70
2018-03-08T11:57:37.922Z,37.03
2018-03-08T12:00:08.330Z,38.00
2018-03-08T12:02:39.215Z,39.50
2018-03-08T12:05:09.582Z,36.93
2018-03-08T12:07:39.911Z,34.93
2018-03-08T12:10:10.545Z,41.63
2018-03-08T12:12:40.899Z,37.53
2018-03-08T12:15:11.243Z,31.33
2018-03-08T12:17:41.822Z,33.80
2018-03-08T12:20:12.407Z,38.57
2018-03-08T12:22:43.522Z,36.67
2018-03-08T12:25:15.051Z,32.73
2018-03-08T12:27:45.407Z,33.20
2018-03-08T12:30:16.769Z,32.53
2018-03-08T12:32:48.253Z,33.67
2018-03-08T12:35:18.668Z,34.67
2018-03-08T12:37:49.989Z,33.63
2018-03-08T12:40:20.396Z,28.40
2018-03-08T12:44:05.007Z,29.10
2018-03-08T12:46:36.558Z,25.03
2018-03-08T12:49:06.955Z,27.00
2018-03-08T12:51:37.279Z,28.43
2018-03-08T12:54:07.622Z,23.20
2018-03-08T12:56:39.060Z,23.70
2018-03-08T12:59:09.437Z,24.00
2018-03-08T13:01:39.822Z,24.63
2018-03-08T13:04:11.342Z,23.40
2018-03-08T13:06:41.862Z,22.70
2018-03-08T13:09:12.227Z,20.53
2018-03-08T13:11:42.875Z,24.37
2018-03-08T13:14:13.229Z,22.20
2018-03-08T13:16:43.563Z,27.07
2018-03-08T13:19:14.151Z,21.73
2018-03-08T13:21:44.486Z,18.43
2018-03-08T13:24:15.172Z,17.87
2018-03-08T13:26:46.563Z,22.00
2018-03-08T13:29:16.970Z,20.13
2018-03-08T13:31:47.369Z,18.33
2018-03-08T13:34:18.645Z,20.37
2018-03-08T13:36:49.060Z,15.03
2018-03-08T13:39:20.191Z,18.50
2018-03-08T13:41:50.842Z,14.23
2018-03-08T13:44:21.200Z,15.70
2018-03-08T13:46:51.564Z,15.33
2018-03-08T13:49:31.079Z,13.40
2018-03-08T13:52:01.483Z,11.07
2018-03-08T13:54:32.166Z,13.00
2018-03-08T13:57:02.567Z,14.43
2018-03-08T13:59:32.931Z,12.43
2018-03-08T14:02:05.010Z,12.53
2018-03-08T14:04:37.023Z,13.87
2018-03-08T14:07:07.675Z,14.03
2018-03-08T14:09:38.898Z,16.37
2018-03-08T14:12:10.502Z,13.43
2018-03-08T14:14:41.272Z,13.30
2018-03-08T14:17:11.967Z,14.90
2018-03-08T14:19:43.097Z,12.17
2018-03-08T14:22:14.524Z,13.40
2018-03-08T14:24:45.736Z,13.20
2018-03-08T14:27:16.396Z,11.77
2018-03-08T14:29:47.100Z,12.67
2018-03-08T14:32:17.508Z,16.03
2018-03-08T14:34:48.199Z,11.47
2018-03-08T14:37:20.330Z,12.43
2018-03-08T14:39:53.481Z,16.07
2018-03-08T14:42:24.359Z,12.83
2018-03-08T14:44:54.749Z,12.43
2018-03-08T14:47:25.115Z,10.00
2018-03-08T14:49:55.752Z,12.53
2018-03-08T14:52:26.122Z,10.83
2018-03-08T14:54:56.554Z,10.63
2018-03-08T14:57:27.202Z,12.93
2018-03-08T14:59:58.780Z,10.03
2018-03-08T15:02:30.050Z,10.20
2018-03-08T15:05:01.481Z,9.33
2018-03-08T15:07:33.242Z,9.37
2018-03-08T15:10:03.692Z,9.37
2018-03-08T15:12:34.999Z,9.73
2018-03-08T15:15:05.751Z,8.77
2018-03-08T15:17:36.107Z,10.90
2018-03-08T15:20:06.477Z,9.57
2018-03-08T15:22:37.155Z,9.67
2018-03-08T15:25:08.246Z,9.57
2018-03-08T15:27:38.635Z,10.47
2018-03-08T15:30:09.424Z,9.23
2018-03-08T15:32:39.789Z,10.97
2018-03-08T15:35:10.202Z,7.30
2018-03-08T15:37:41.660Z,8.37
2018-03-08T15:40:12.121Z,9.40
2018-03-08T15:42:42.691Z,7.97
2018-03-08T15:45:13.350Z,8.00
2018-03-08T15:47:44.492Z,8.57
2018-03-08T15:50:15.313Z,11.83
2018-03-08T15:52:46.440Z,9.83
2018-03-08T15:55:17.104Z,12.17
2018-03-08T15:57:47.708Z,9.83
2018-03-08T16:00:18.428Z,8.00
2018-03-08T16:02:48.863Z,10.33
2018-03-08T16:05:19.619Z,10.60
2018-03-08T16:07:51.062Z,11.23
2018-03-08T16:10:30.235Z,7.50
2018-03-08T16:13:01.720Z,8.93
2018-03-08T16:15:32.067Z,6.73
2018-03-08T16:18:03.182Z,8.03
2018-03-08T16:20:33.760Z,11.00
2018-03-08T16:23:04.055Z,11.13
2018-03-08T16:25:34.375Z,13.47
2018-03-08T16:28:05.308Z,12.10
2018-03-08T16:30:36.659Z,13.03
2018-03-08T16:33:07.062Z,11.60
2018-03-08T16:35:37.635Z,8.43
2018-03-08T16:38:07.995Z,9.10
2018-03-08T16:40:38.372Z,10.60
2018-03-08T16:43:09.817Z,7.60
2018-03-08T16:45:41.532Z,10.30
2018-03-08T16:48:12.214Z,9.63
2018-03-08T16:50:43.355Z,12.60
2018-03-08T16:53:14.497Z,10.30
2018-03-08T16:55:45.957Z,31.00
2018-03-08T16:58:16.300Z,8.73
2018-03-08T17:00:46.855Z,11.13
2018-03-08T17:03:18.321Z,8.93
2018-03-08T17:05:49.649Z,9.50
2018-03-08T17:08:19.999Z,9.10
2018-03-08T17:10:50.630Z,12.57
2018-03-08T17:13:21.262Z,10.10
2018-03-08T17:15:52.384Z,10.27
2018-03-08T17:18:23.006Z,9.77
2018-03-08T17:20:53.371Z,8.70
2018-03-08T17:23:26.196Z,10.93
2018-03-08T17:25:56.557Z,10.23
2018-03-08T17:28:27.877Z,10.83
2018-03-08T17:31:01.100Z,13.50
2018-03-08T17:33:31.812Z,14.60
2018-03-08T17:36:02.531Z,11.07
2018-03-08T17:38:34.460Z,9.77
2018-03-08T17:41:04.934Z,9.07
2018-03-08T17:43:35.884Z,9.40
2018-03-08T17:46:06.600Z,9.87
2018-03-08T17:48:37.501Z,9.80
2018-03-08T17:51:15.228Z,12.23
2018-03-08T17:53:49.376Z,12.47
2018-03-08T17:56:22.447Z,12.03
2018-03-08T17:58:56.178Z,15.83
2018-03-08T18:01:32.926Z,10.90
2018-03-08T18:04:14.697Z,8.90
2018-03-08T18:06:48.649Z,9.10
2018-03-08T18:09:20.947Z,10.27
2018-03-08T18:11:54.950Z,11.77
2018-03-08T18:14:40.203Z,11.33
2018-03-08T18:17:14.056Z,14.03
2018-03-08T18:19:45.809Z,16.83
2018-03-08T18:22:16.473Z,14.33
2018-03-08T18:24:47.850Z,16.57
2018-03-08T18:27:18.183Z,19.97
2018-03-08T18:29:49.120Z,18.57
2018-03-08T18:32:20.091Z,18.47
2018-03-08T18:34:51.353Z,19.23
2018-03-08T18:37:21.944Z,19.27
2018-03-08T18:39:53.995Z,24.13
2018-03-08T18:42:24.329Z,20.10
2018-03-08T18:44:55.096Z,20.10
2018-03-08T18:47:25.515Z,22.33
2018-03-08T18:49:56.114Z,23.33
2018-03-08T18:52:26.932Z,23.97
2018-03-08T18:54:58.040Z,20.97
2018-03-08T18:57:29.463Z,22.07
2018-03-08T19:00:00.879Z,23.27
2018-03-08T19:02:31.368Z,26.17
2018-03-08T19:05:03.768Z,24.27
2018-03-08T19:07:35.197Z,24.97
2018-03-08T19:10:05.795Z,21.93
2018-03-08T19:12:36.194Z,22.50
2018-03-08T19:15:06.852Z,23.50
2018-03-08T19:17:37.896Z,24.53
2018-03-08T19:20:08.230Z,24.43
2018-03-08T19:22:38.915Z,23.80
2018-03-08T19:25:10.235Z,28.93
2018-03-08T19:27:41.442Z,23.13
2018-03-08T19:30:12.048Z,24.23
2018-03-08T19:32:42.687Z,24.17
2018-03-08T19:35:13.415Z,28.23
2018-03-08T19:37:44.123Z,26.77
2018-03-08T19:40:15.474Z,27.53
2018-03-08T19:42:45.829Z,27.13
2018-03-08T19:45:16.464Z,26.50
2018-03-08T19:47:47.282Z,24.67
2018-03-08T19:50:18.896Z,24.53
2018-03-08T19:52:50.279Z,24.13
2018-03-08T19:55:20.739Z,23.97
2018-03-08T19:57:51.479Z,21.57
2018-03-08T20:00:21.843Z,27.20
2018-03-08T20:02:52.947Z,29.53
2018-03-08T20:05:23.707Z,29.57
2018-03-08T20:07:54.937Z,30.37
2018-03-08T20:10:26.056Z,32.20
2018-03-08T20:12:56.703Z,28.60
2018-03-08T20:15:27.127Z,26.70
2018-03-08T20:17:57.531Z,29.63
2018-03-08T20:20:28.194Z,28.33
2018-03-08T20:22:58.621Z,31.17
2018-03-08T20:25:28.963Z,31.87
2018-03-08T20:27:59.661Z,31.17
2018-03-08T20:30:30.048Z,29.43
2018-03-08T20:33:00.404Z,31.27
2018-03-08T20:35:31.068Z,34.40
2018-03-08T20:38:02.168Z,36.47
2018-03-08T20:40:32.802Z,32.20
2018-03-08T20:43:03.172Z,25.90
2018-03-08T20:45:33.862Z,24.10
2018-03-08T20:48:04.303Z,22.33
2018-03-08T20:50:34.660Z,20.60
2018-03-08T20:53:05.382Z,20.90
2018-03-08T20:55:35.703Z,22.77
2018-03-08T20:58:06.858Z,18.77
2018-03-08T21:00:37.516Z,18.77
2018-03-08T21:03:07.880Z,18.63
2018-03-08T21:05:38.507Z,16.53
2018-03-08T21:08:09.191Z,14.83
2018-03-08T21:10:39.515Z,13.87
2018-03-08T21:13:10.033Z,11.00
2018-03-08T21:15:40.789Z,10.00
2018-03-08T21:18:11.435Z,10.77
2018-03-08T21:20:41.842Z,10.13
2018-03-08T21:23:12.452Z,9.07
2018-03-08T21:25:42.797Z,9.27
2018-03-08T21:28:13.154Z,7.03
2018-03-08T21:30:43.761Z,9.83
2018-03-08T21:33:14.078Z,7.80
2018-03-08T21:36:47.306Z,7.80
2018-03-08T21:39:17.888Z,7.17
2018-03-08T21:41:48.499Z,7.30
2018-03-08T21:44:19.952Z,6.40
2018-03-08T21:46:50.322Z,8.07
2018-03-08T21:49:20.687Z,7.10
2018-03-08T21:51:52.081Z,8.33
2018-03-08T21:54:22.428Z,6.83
2018-03-08T21:56:52.776Z,6.93
2018-03-08T21:59:24.180Z,6.37
2018-03-08T22:01:54.547Z,7.93
2018-03-08T22:04:25.667Z,7.97
2018-03-08T22:06:56.264Z,11.80
2018-03-08T22:09:26.645Z,10.53
2018-03-08T22:11:58.075Z,13.43
2018-03-08T22:14:28.744Z,11.10
2018-03-08T22:16:59.215Z,11.00
2018-03-08T22:19:29.539Z,12.47
2018-03-08T22:22:00.907Z,11.20
2018-03-08T22:24:31.523Z,12.53
2018-03-08T22:27:02.277Z,13.63
2018-03-08T22:29:33.223Z,11.10
2018-03-08T22:32:03.968Z,10.33
2018-03-08T22:34:34.636Z,11.27
2018-03-08T22:37:06.352Z,13.93
2018-03-08T22:39:37.165Z,12.83
2018-03-08T22:42:08.110Z,13.30
2018-03-08T22:44:38.763Z,14.63
2018-03-08T22:47:09.701Z,17.63
2018-03-08T22:49:40.378Z,15.50
2018-03-08T22:52:11.798Z,14.87
2018-03-08T22:54:42.750Z,15.53
2018-03-08T22:57:13.419Z,17.63
2018-03-08T22:59:44.099Z,15.23
2018-03-08T23:02:15.499Z,19.43
2018-03-08T23:04:47.024Z,19.00
2018-03-08T23:07:17.951Z,18.63
2018-03-08T23:09:49.006Z,20.93
2018-03-08T23:12:20.410Z,19.33
2018-03-08T23:14:52.392Z,23.27
2018-03-08T23:17:23.047Z,22.17
2018-03-08T23:19:54.453Z,24.33
2018-03-08T23:22:25.257Z,24.87
2018-03-08T23:24:56.159Z,26.50
2018-03-08T23:27:27.063Z,30.13
2018-03-08T23:29:57.719Z,31.10
2018-03-08T23:32:29.891Z,29.23
2018-03-08T23:35:01.730Z,29.87
2018-03-08T23:37:32.995Z,30.67
2018-03-08T23:40:04.694Z,35.30
2018-03-08T23:42:36.092Z,32.30
2018-03-08T23:45:07.259Z,33.33
2018-03-08T23:47:38.687Z,33.27
2018-03-08T23:50:10.176Z,34.27
2018-03-08T23:52:41.091Z,31.97
2018-03-08T23:55:12.620Z,34.17
2018-03-08T23:57:43.629Z,33.37
